Time;durP1;ratioP1;P1;durP2;ratioP2;P2;SDS_P1;SDS_P2;PMS_P1;PMS_P2;Temp;Humidity;BMP_temperature;BMP_pressure;BME280_temperature;BME280_humidity;BME280_pressure;Samples;Min_cycle;Max_cycle;Signal;HPM_P1;HPM_P2
2022/10/03 00:02:15;;;;;;;12.93;1.20;;;11.20;99.90;;;;;;5012087;28;20490;-95
2022/10/03 00:05:03;;;;;;;12.23;2.28;;;11.20;99.90;;;;;;5011939;28;20045;-94
2022/10/03 00:07:41;;;;;;;15.88;2.15;;;11.20;99.90;;;;;;5012421;28;20096;-93
2022/10/03 00:10:34;;;;;;;11.88;1.52;;;11.30;99.90;;;;;;5011799;28;20045;-94
2022/10/03 00:13:43;;;;;;;20.48;2.60;;;11.30;99.90;;;;;;5065076;28;20037;-96
2022/10/03 00:16:35;;;;;;;18.50;1.35;;;11.40;99.90;;;;;;5034112;28;20085;-96
2022/10/03 00:19:34;;;;;;;7.78;1.30;;;11.40;99.90;;;;;;5045678;28;20049;-96
2022/10/03 00:22:21;;;;;;;17.98;2.65;;;11.50;99.90;;;;;;5041905;28;20056;-96
2022/10/03 00:25:24;;;;;;;9.70;1.23;;;11.50;99.90;;;;;;5031323;28;20138;-96
2022/10/03 00:28:20;;;;;;;11.75;1.42;;;11.50;99.90;;;;;;5027750;28;20108;-95
2022/10/03 00:31:13;;;;;;;13.30;3.10;;;11.60;99.90;;;;;;5023870;28;20037;-96
2022/10/03 00:34:08;;;;;;;;;;;11.60;99.90;;;;;;5018994;28;20045;-96
2022/10/03 00:40:14;;;;;;;11.25;1.17;;;11.60;99.90;;;;;;5034043;28;20102;-93
2022/10/03 00:43:00;;;;;;;13.13;1.38;;;11.60;99.90;;;;;;4997657;28;20080;-95
2022/10/03 00:46:03;;;;;;;14.25;1.33;;;11.70;99.90;;;;;;4956218;29;20036;-96
2022/10/03 00:49:11;;;;;;;15.38;1.67;;;11.60;99.90;;;;;;4942304;29;20032;-95
2022/10/03 00:52:23;;;;;;;9.02;1.75;;;11.60;99.90;;;;;;4904137;29;20079;-96
2022/10/03 00:55:20;;;;;;;15.50;1.73;;;11.60;99.90;;;;;;4900654;29;20078;-96
2022/10/03 00:58:17;;;;;;;14.75;1.58;;;11.60;99.90;;;;;;4904240;29;20029;-96
2022/10/03 01:00:50;;;;;;;11.30;1.85;;;11.60;99.90;;;;;;4902753;29;20045;-96
2022/10/03 01:07:21;;;;;;;11.13;2.20;;;11.70;99.90;;;;;;4903000;29;20037;-96
2022/10/03 01:10:21;;;;;;;12.95;2.83;;;11.70;99.90;;;;;;4900092;29;20045;-96
2022/10/03 01:21:07;;;;;;;11.38;1.48;;;11.70;99.90;;;;;;4915389;29;20099;-96
2022/10/03 01:31:01;;;;;;;18.95;2.53;;;11.60;99.90;;;;;;4939177;29;20047;-96
2022/10/03 01:33:27;;;;;;;13.50;1.45;;;11.60;99.90;;;;;;4983168;28;20046;-96
2022/10/03 01:36:01;;;;;;;10.88;1.60;;;11.60;99.90;;;;;;5001570;28;20077;-96
2022/10/03 01:42:03;;;;;;;8.43;1.00;;;11.50;99.90;;;;;;5026830;28;20134;-96
2022/10/03 01:45:05;;;;;;;12.65;0.90;;;11.40;99.90;;;;;;4958219;28;20093;-96
2022/10/03 01:48:16;;;;;;;13.30;2.63;;;11.40;99.90;;;;;;4972927;28;20053;-96
2022/10/03 01:55:15;;;;;;;15.57;1.55;;;11.40;99.90;;;;;;4940012;29;20027;-96
2022/10/03 01:58:33;;;;;;;6.07;1.45;;;11.40;99.90;;;;;;4955880;29;20046;-96
2022/10/03 02:02:06;;;;;;;12.05;1.67;;;11.40;99.90;;;;;;4955651;29;20127;-96
2022/10/03 02:05:03;;;;;;;15.65;2.17;;;11.40;99.90;;;;;;4920400;28;20059;-96
2022/10/03 02:07:53;;;;;;;16.10;2.33;;;11.40;99.90;;;;;;4920403;29;20058;-96
2022/10/03 02:14:37;;;;;;;11.93;1.38;;;11.50;99.90;;;;;;4957791;28;20066;-95
2022/10/03 02:21:19;;;;;;;9.02;0.95;;;11.50;99.90;;;;;;4906820;28;20233;-93
2022/10/03 02:24:41;;;;;;;13.25;1.67;;;11.50;99.90;;;;;;4963216;28;20027;-96
2022/10/03 02:27:43;;;;;;;14.80;1.45;;;11.50;99.90;;;;;;4975205;28;20110;-89
2022/10/03 02:30:47;;;;;;;13.25;1.52;;;11.60;99.90;;;;;;4983028;28;20098;-96
2022/10/03 02:33:35;;;;;;;10.23;1.40;;;11.60;99.90;;;;;;4982734;28;20038;-95
2022/10/03 02:40:19;;;;;;;15.48;1.15;;;11.70;99.90;;;;;;5014605;28;20037;-96
2022/10/03 02:43:23;;;;;;;12.25;1.92;;;11.70;99.90;;;;;;4987600;28;20098;-96
2022/10/03 02:46:42;;;;;;;9.40;1.50;;;11.70;99.90;;;;;;5034677;28;20069;-96
2022/10/03 02:49:54;;;;;;;12.73;1.08;;;11.80;99.90;;;;;;5016958;28;20034;-96
2022/10/03 02:53:01;;;;;;;11.65;1.27;;;11.80;99.90;;;;;;4994621;28;20084;-96
2022/10/03 02:56:19;;;;;;;8.45;1.65;;;11.80;99.90;;;;;;4988410;28;20109;-96
2022/10/03 02:59:41;;;;;;;14.68;1.90;;;11.80;99.90;;;;;;4989470;28;20050;-96
2022/10/03 03:02:50;;;;;;;7.80;0.90;;;11.80;99.90;;;;;;4972462;28;20057;-96
2022/10/03 03:05:35;;;;;;;13.05;1.15;;;11.80;99.90;;;;;;4914469;29;20052;-96
2022/10/03 03:08:38;;;;;;;11.68;1.30;;;11.80;99.90;;;;;;4912253;29;20071;-96
2022/10/03 03:11:18;;;;;;;14.18;2.38;;;11.90;99.90;;;;;;4896343;29;20055;-96
2022/10/03 03:14:28;;;;;;;10.88;1.10;;;12.00;99.90;;;;;;4893395;29;20080;-96
2022/10/03 03:17:35;;;;;;;11.93;1.65;;;11.90;99.90;;;;;;4879544;29;20107;-96
2022/10/03 03:20:37;;;;;;;11.13;1.20;;;11.90;99.90;;;;;;4930211;29;20091;-96
2022/10/03 03:23:31;;;;;;;16.17;1.40;;;11.90;99.90;;;;;;4935752;29;20115;-96
2022/10/03 03:26:42;;;;;;;12.27;1.40;;;11.90;99.90;;;;;;4924202;28;20043;-96
2022/10/03 03:29:15;;;;;;;16.30;1.60;;;11.90;99.90;;;;;;4970062;28;20077;-96
2022/10/03 03:31:41;;;;;;;;;;;11.90;99.90;;;;;;4960537;28;20061;-96
2022/10/03 03:34:29;;;;;;;6.53;1.00;;;11.80;99.90;;;;;;4977749;28;19922;-96
2022/10/03 03:37:32;;;;;;;19.55;1.85;;;11.80;99.90;;;;;;4994073;28;20050;-96
2022/10/03 03:40:17;;;;;;;9.50;1.50;;;11.80;99.90;;;;;;4984938;28;20156;-96
2022/10/03 03:43:27;;;;;;;9.68;1.33;;;11.80;99.90;;;;;;5020684;28;20477;-96
2022/10/03 03:46:33;;;;;;;11.20;1.60;;;11.90;99.90;;;;;;5023037;28;20088;-96
2022/10/03 03:49:26;;;;;;;;;;;11.90;99.90;;;;;;5028836;28;20072;-96
2022/10/03 03:51:51;;;;;;;;;;;11.90;99.90;;;;;;5007331;28;19921;-96
2022/10/03 03:54:23;;;;;;;;;;;11.90;99.90;;;;;;4994822;28;20331;-95
2022/10/03 03:57:07;;;;;;;;;;;11.90;99.90;;;;;;4997564;28;20399;-91
2022/10/03 03:59:45;;;;;;;;;;;11.90;99.90;;;;;;4993588;28;20365;-96
2022/10/03 04:02:25;;;;;;;;;;;11.90;99.90;;;;;;4992716;28;20157;-96
2022/10/03 04:04:51;;;;;;;;;;;11.90;99.90;;;;;;4992511;28;20007;-96
2022/10/03 04:07:35;;;;;;;;;;;13.20;99.90;;;;;;4992250;28;20456;-96
2022/10/03 04:10:37;;;;;;;;;;;11.80;99.90;;;;;;4995406;28;19920;-95
2022/10/03 04:13:03;;;;;;;;;;;11.80;99.90;;;;;;4976940;28;20059;-96
2022/10/03 04:15:43;;;;;;;;;;;11.80;99.90;;;;;;4996539;28;20413;-88
2022/10/03 04:21:19;;;;;;;;;;;11.70;99.90;;;;;;5030114;28;19967;-89
2022/10/03 04:23:49;;;;;;;;;;;11.60;99.90;;;;;;5015236;28;19971;-95
2022/10/03 04:26:16;;;;;;;;;;;11.70;99.90;;;;;;5016150;28;19921;-93
2022/10/03 04:28:54;;;;;;;;;;;12.00;99.90;;;;;;5015067;28;19921;-91
2022/10/03 04:31:22;;;;;;;;;;;11.60;99.90;;;;;;5016447;28;19931;-95
2022/10/03 04:34:03;;;;;;;;;;;11.60;99.90;;;;;;5018634;28;19920;-96
2022/10/03 04:36:38;;;;;;;;;;;11.60;99.90;;;;;;5020455;28;19925;-93
2022/10/03 04:39:07;;;;;;;;;;;11.60;99.90;;;;;;5017405;28;19920;-94
2022/10/03 04:41:33;;;;;;;;;;;12.20;99.90;;;;;;5017241;28;19928;-93
2022/10/03 04:44:18;;;;;;;;;;;11.70;99.90;;;;;;5025180;28;19924;-94
2022/10/03 04:46:55;;;;;;;;;;;11.70;99.90;;;;;;5020506;28;19983;-94
2022/10/03 04:49:20;;;;;;;;;;;11.60;99.90;;;;;;5023607;28;19920;-96
2022/10/03 04:51:56;;;;;;;;;;;12.50;99.90;;;;;;5036421;28;19920;-96
2022/10/03 04:54:43;;;;;;;;;;;11.60;99.90;;;;;;5034452;28;20426;-92
2022/10/03 04:57:24;;;;;;;;;;;11.50;99.90;;;;;;5036620;28;19928;-96
2022/10/03 04:59:56;;;;;;;;;;;11.50;99.90;;;;;;5033075;28;20002;-94
2022/10/03 05:02:34;;;;;;;;;;;12.30;99.90;;;;;;5029781;28;19921;-94
2022/10/03 05:05:18;;;;;;;;;;;11.30;99.90;;;;;;5032616;28;19968;-95
2022/10/03 05:07:52;;;;;;;;;;;11.30;99.90;;;;;;5036713;28;19925;-96
2022/10/03 05:10:55;;;;;;;;;;;11.20;99.90;;;;;;5015225;28;19920;-96
2022/10/03 05:13:31;;;;;;;;;;;11.10;99.90;;;;;;5030231;28;19920;-88
2022/10/03 05:16:07;;;;;;;;;;;11.10;99.90;;;;;;5016085;28;19927;-90
2022/10/03 05:18:40;;;;;;;;;;;11.10;99.90;;;;;;5014046;28;20479;-94
2022/10/03 05:21:15;;;;;;;;;;;11.00;99.90;;;;;;5015572;28;19990;-90
2022/10/03 05:24:04;;;;;;;;;;;11.00;99.90;;;;;;5015438;28;19921;-91
2022/10/03 05:26:42;;;;;;;;;;;10.20;99.90;;;;;;5008036;28;19924;-90
2022/10/03 05:29:26;;;;;;;;;;;10.90;99.90;;;;;;5017919;28;19927;-90
2022/10/03 05:31:52;;;;;;;;;;;10.80;99.90;;;;;;5014228;28;19920;-90
2022/10/03 05:34:24;;;;;;;;;;;10.80;99.90;;;;;;5015201;28;19926;-90
2022/10/03 05:37:03;;;;;;;;;;;10.80;99.90;;;;;;5014799;28;20292;-92
2022/10/03 05:39:32;;;;;;;;;;;10.70;99.90;;;;;;5014434;28;20126;-88
2022/10/03 05:42:04;;;;;;;;;;;10.70;99.90;;;;;;5030846;28;20015;-92
2022/10/03 05:44:38;;;;;;;;;;;10.70;99.90;;;;;;5009428;28;20012;-90
2022/10/03 05:50:26;;;;;;;;;;;10.60;99.90;;;;;;5029375;28;19921;-91
2022/10/03 05:52:52;;;;;;;;;;;10.50;99.90;;;;;;4980944;28;19944;-87
2022/10/03 05:55:17;;;;;;;;;;;10.60;99.90;;;;;;5010760;28;20351;-95
2022/10/03 05:57:43;;;;;;;;;;;10.70;99.90;;;;;;5009009;28;19983;-81
2022/10/03 06:00:17;;;;;;;;;;;10.50;99.90;;;;;;5026609;28;20392;-82
2022/10/03 06:02:51;;;;;;;;;;;10.40;99.90;;;;;;5026059;28;20371;-82
2022/10/03 06:05:20;;;;;;;;;;;11.20;99.90;;;;;;5008400;28;19943;-84
2022/10/03 06:07:48;;;;;;;;;;;10.40;99.90;;;;;;5009579;28;19921;-84
2022/10/03 06:10:38;;;;;;;;;;;10.40;99.90;;;;;;5024735;28;19925;-83
2022/10/03 06:13:10;;;;;;;;;;;10.50;99.90;;;;;;5025024;28;19936;-85
2022/10/03 06:15:37;;;;;;;;;;;11.60;99.90;;;;;;5025485;28;19935;-82
2022/10/03 06:18:02;;;;;;;;;;;10.50;99.90;;;;;;5007456;28;20368;-84
2022/10/03 06:20:28;;;;;;;;;;;10.60;99.90;;;;;;5008655;28;19925;-83
2022/10/03 06:23:14;;;;;;;;;;;10.60;99.90;;;;;;5024267;28;19921;-83
2022/10/03 06:25:59;;;;;;;;;;;10.60;99.90;;;;;;5015833;28;19932;-85
2022/10/03 06:28:35;;;;;;;;;;;10.70;99.90;;;;;;5025213;28;19925;-84
2022/10/03 06:31:00;;;;;;;;;;;10.70;99.90;;;;;;5008087;28;19920;-82
2022/10/03 06:33:45;;;;;;;;;;;10.70;99.90;;;;;;5025218;28;19967;-83
2022/10/03 06:36:40;;;;;;;;;;;10.70;99.90;;;;;;5007933;28;20003;-84
2022/10/03 06:39:08;;;;;;;;;;;10.70;99.90;;;;;;4971407;28;19929;-84
2022/10/03 06:41:53;;;;;;;;;;;10.80;99.90;;;;;;5025111;28;19928;-84
2022/10/03 06:44:35;;;;;;;;;;;10.80;99.90;;;;;;5023840;28;19924;-84
2022/10/03 06:47:04;;;;;;;;;;;10.50;99.90;;;;;;5025102;28;19921;-84
2022/10/03 06:49:34;;;;;;;;;;;10.90;99.90;;;;;;5024091;28;19975;-84
2022/10/03 06:52:12;;;;;;;;;;;10.90;99.90;;;;;;5007464;28;19925;-84
2022/10/03 06:54:43;;;;;;;;;;;10.90;99.90;;;;;;5024530;28;19928;-84
2022/10/03 06:57:28;;;;;;;;;;;11.00;99.90;;;;;;5023683;28;19932;-84
2022/10/03 07:00:03;;;;;;;;;;;11.00;99.90;;;;;;5026320;28;19931;-84
2022/10/03 07:02:47;;;;;;;;;;;11.10;99.90;;;;;;5026126;28;19925;-84
2022/10/03 07:05:18;;;;;;;;;;;11.20;99.90;;;;;;5024676;28;20360;-84
2022/10/03 07:08:03;;;;;;;;;;;11.20;99.90;;;;;;5024643;28;19921;-84
2022/10/03 07:10:34;;;;;;;;;;;11.30;99.90;;;;;;5023797;28;19929;-84
2022/10/03 07:13:09;;;;;;;;;;;11.40;99.90;;;;;;5024227;28;19983;-84
2022/10/03 07:15:54;;;;;;;;;;;11.50;99.90;;;;;;5024617;28;19921;-84
2022/10/03 07:18:31;;;;;;;;;;;11.60;99.90;;;;;;5023358;28;20019;-84
2022/10/03 07:20:57;;;;;;;;;;;11.70;99.90;;;;;;5025037;28;19921;-84
2022/10/03 07:23:29;;;;;;;;;;;11.80;99.90;;;;;;5023837;28;20362;-84
2022/10/03 07:26:10;;;;;;;;;;;11.90;99.90;;;;;;5023894;28;19975;-84
2022/10/03 07:29:08;;;;;;;;;;;12.00;99.90;;;;;;5024814;28;20036;-84
2022/10/03 07:31:52;;;;;;;;;;;12.10;99.90;;;;;;4980633;28;19973;-84
2022/10/03 07:34:38;;;;;;;;;;;12.30;99.90;;;;;;5024515;28;20008;-84
2022/10/03 07:40:28;;;;;;;;;;;12.50;99.90;;;;;;5001732;28;20000;-84
2022/10/03 07:43:03;;;;;;;;;;;12.60;99.90;;;;;;5013317;28;19921;-84
2022/10/03 07:45:29;;;;;;;;;;;12.80;99.90;;;;;;5029536;28;19931;-84
2022/10/03 07:48:06;;;;;;;;;;;12.90;99.90;;;;;;5027402;28;19921;-84
2022/10/03 07:50:49;;;;;;;;;;;13.00;99.90;;;;;;5028889;28;19948;-84
2022/10/03 07:53:27;;;;;;;;;;;13.20;99.90;;;;;;5027886;28;19921;-84
2022/10/03 07:55:53;;;;;;;;;;;13.40;99.90;;;;;;5027591;28;19921;-84
2022/10/03 07:58:25;;;;;;;;;;;13.50;99.90;;;;;;5012100;28;19932;-84
2022/10/03 08:00:50;;;;;;;;;;;13.60;99.90;;;;;;5027392;28;19928;-84
2022/10/03 08:03:25;;;;;;;;;;;13.70;99.90;;;;;;5011809;28;19921;-84
2022/10/03 08:05:54;;;;;;;;;;;13.80;99.90;;;;;;5026692;28;19928;-84
2022/10/03 08:08:32;;;;;;;;;;;13.90;99.90;;;;;;5027886;28;19921;-84
2022/10/03 08:11:16;;;;;;;;;;;14.00;99.90;;;;;;5027662;28;20038;-84
2022/10/03 08:14:00;;;;;;;;;;;14.10;99.90;;;;;;5010154;28;19921;-83
2022/10/03 08:16:28;;;;;;;;;;;14.30;99.90;;;;;;5028826;28;19979;-85
2022/10/03 08:18:57;;;;;;;;;;;14.40;99.90;;;;;;5010362;28;19975;-84
2022/10/03 08:21:25;;;;;;;;;;;14.50;99.90;;;;;;5027821;28;19935;-84
2022/10/03 08:24:10;;;;;;;;;;;14.60;99.90;;;;;;5027878;28;19920;-84
2022/10/03 08:26:42;;;;;;;;;;;14.70;99.90;;;;;;5026530;28;19921;-85
2022/10/03 08:29:28;;;;;;;;;;;14.80;99.90;;;;;;5027706;28;20546;-85
2022/10/03 08:32:06;;;;;;;;;;;14.90;99.90;;;;;;5025984;28;20016;-84
2022/10/03 08:34:50;;;;;;;;;;;15.00;99.90;;;;;;5026725;28;19967;-84
2022/10/03 08:37:36;;;;;;;;;;;15.10;99.90;;;;;;5027082;28;19921;-84
2022/10/03 08:40:34;;;;;;;;;;;15.20;99.90;;;;;;5026064;28;19981;-85
2022/10/03 08:43:15;;;;;;;;;;;15.30;99.90;;;;;;4983464;28;20384;-85
2022/10/03 08:45:46;;;;;;;;;;;15.40;99.90;;;;;;5027620;28;20091;-84
2022/10/03 08:48:18;;;;;;;;;;;15.50;99.90;;;;;;5026276;28;19944;-84
2022/10/03 08:51:03;;;;;;;;;;;15.60;99.90;;;;;;5027306;28;19921;-85
2022/10/03 08:53:32;;;;;;;;;;;15.70;99.90;;;;;;5008726;28;20056;-84
2022/10/03 08:56:16;;;;;;;;;;;15.70;99.90;;;;;;5026653;28;20008;-84
2022/10/03 08:58:51;;;;;;;;;;;15.90;99.90;;;;;;5026918;28;19983;-84
2022/10/03 09:01:17;;;;;;;;;;;15.90;99.90;;;;;;5009379;28;19921;-84
2022/10/03 09:04:01;;;;;;;;;;;16.00;99.90;;;;;;5027155;28;19928;-84
2022/10/03 09:06:27;;;;;;;;;;;16.10;99.90;;;;;;5009732;28;20038;-84
2022/10/03 09:09:01;;;;;;;;;;;16.20;99.90;;;;;;5026044;28;20382;-84
2022/10/03 09:11:43;;;;;;;;;;;16.30;99.90;;;;;;5026556;28;20387;-84
2022/10/03 09:14:09;;;;;;;;;;;16.30;99.90;;;;;;5025942;28;19925;-84
2022/10/03 09:16:46;;;;;;;;;;;16.40;99.90;;;;;;5026952;28;19968;-84
2022/10/03 09:19:31;;;;;;;;;;;16.50;99.90;;;;;;5009373;28;19921;-83
2022/10/03 09:21:57;;;;;;;;;;;16.60;99.90;;;;;;5025430;28;19968;-84
2022/10/03 09:24:26;;;;;;;;;;;17.60;99.90;;;;;;5026328;28;19967;-83
2022/10/03 09:27:12;;;;;;;;;;;16.80;99.90;;;;;;5025239;28;20007;-84
2022/10/03 09:29:50;;;;;;;;;;;16.80;99.90;;;;;;5026519;28;19967;-84
2022/10/03 09:32:16;;;;;;;;;;;16.80;99.90;;;;;;5009534;28;19928;-83
2022/10/03 09:34:45;;;;;;;;;;;16.90;99.90;;;;;;5025281;28;20016;-84
2022/10/03 09:37:11;;;;;;;;;;;16.90;99.90;;;;;;5026495;28;20340;-83
2022/10/03 09:39:46;;;;;;;;;;;17.00;99.90;;;;;;5008813;28;19921;-83
2022/10/03 09:42:15;;;;;;;;;;;17.00;99.90;;;;;;5026768;28;20354;-83
2022/10/03 09:44:49;;;;;;;;;;;17.10;99.90;;;;;;5024860;28;20294;-83
2022/10/03 09:47:27;;;;;;;;;;;17.20;99.90;;;;;;5025119;28;19920;-84
2022/10/03 09:50:12;;;;;;;;;;;17.20;99.90;;;;;;5009939;28;20048;-83
2022/10/03 09:52:52;;;;;;;;;;;17.30;99.90;;;;;;5025453;28;19944;-84
2022/10/03 09:55:29;;;;;;;;;;;17.40;99.90;;;;;;5026166;28;19928;-84
2022/10/03 09:57:58;;;;;;;;;;;16.50;99.90;;;;;;5025316;28;19928;-83
2022/10/03 10:00:26;;;;;;;;;;;17.50;99.90;;;;;;5026302;28;19932;-84
2022/10/03 10:03:18;;;;;;;;;;;17.50;99.90;;;;;;5025416;28;20403;-84
2022/10/03 10:05:57;;;;;;;;;;;17.50;99.90;;;;;;5020339;28;19979;-83
2022/10/03 10:08:44;;;;;;;;;;;17.50;99.90;;;;;;5026257;28;19925;-83
2022/10/03 10:11:15;;;;;;;;;;;17.50;99.90;;;;;;5025489;28;19925;-83
2022/10/03 10:13:59;;;;;;;;;;;17.50;99.90;;;;;;5025022;28;19921;-84
2022/10/03 10:16:44;;;;;;;;;;;17.50;99.90;;;;;;5025757;28;19928;-83
2022/10/03 10:19:20;;;;;;;;;;;17.50;99.90;;;;;;5024885;28;19929;-84
2022/10/03 10:21:49;;;;;;;;;;;17.50;99.90;;;;;;5024676;28;20344;-83
2022/10/03 10:24:35;;;;;;;;;;;17.50;99.90;;;;;;5025409;28;20438;-83
2022/10/03 10:27:13;;;;;;;;;;;17.60;99.90;;;;;;5024116;28;19953;-84
2022/10/03 10:29:47;;;;;;;;;;;17.60;99.90;;;;;;5025896;28;20183;-83
2022/10/03 10:32:32;;;;;;;;;;;17.70;99.90;;;;;;5024601;28;20015;-84
2022/10/03 10:35:09;;;;;;;;;;;17.80;99.90;;;;;;5007465;28;19921;-83
2022/10/03 10:38:08;;;;;;;;;;;17.80;99.90;;;;;;5024996;28;19921;-83
2022/10/03 10:40:59;;;;;;;;;;;17.90;99.90;;;;;;4975596;28;19921;-83
2022/10/03 10:43:24;;;;;;;;;;;17.90;99.90;;;;;;5007132;28;20369;-84
2022/10/03 10:45:59;;;;;;;;;;;18.00;99.90;;;;;;5025152;28;19928;-84
2022/10/03 10:48:43;;;;;;;;;;;18.10;99.90;;;;;;5024046;28;19956;-84
2022/10/03 10:51:35;;;;;;;;;;;18.20;99.90;;;;;;5008183;28;19929;-84
2022/10/03 10:54:04;;;;;;;;;;;18.30;99.90;;;;;;5020614;28;19920;-83
2022/10/03 10:56:51;;;;;;;;;;;18.40;99.90;;;;;;5023419;28;20389;-84
2022/10/03 10:59:28;;;;;;;;;;;18.30;99.90;;;;;;5009148;28;19921;-83
2022/10/03 11:01:57;;;;;;;;;;;18.40;99.90;;;;;;5023866;28;19927;-83
2022/10/03 11:04:41;;;;;;;;;;;18.30;99.90;;;;;;5024287;28;19920;-84
2022/10/03 11:07:10;;;;;;;;;;;18.30;99.90;;;;;;5024715;28;20364;-83
2022/10/03 11:09:50;;;;;;;;;;;18.20;99.90;;;;;;5023316;28;19921;-83
2022/10/03 11:12:25;;;;;;;;;;;18.30;99.90;;;;;;5008400;28;19928;-84
2022/10/03 11:14:54;;;;;;;;;;;18.30;99.90;;;;;;5023687;28;20024;-84
2022/10/03 11:17:19;;;;;;;;;;;18.30;99.90;;;;;;5023036;28;20008;-83
2022/10/03 11:20:01;;;;;;;;;;;18.30;99.90;;;;;;5024710;28;20012;-84
2022/10/03 11:22:35;;;;;;;;;;;18.40;99.90;;;;;;5023976;28;19921;-83
2022/10/03 11:25:20;;;;;;;;;;;18.60;99.90;;;;;;5007886;28;19920;-84
2022/10/03 11:28:04;;;;;;;;;;;18.70;99.90;;;;;;5024094;28;19921;-84
2022/10/03 11:30:55;;;;;;;;;;;18.70;99.90;;;;;;5023085;28;20458;-84
2022/10/03 11:33:26;;;;;;;;;;;18.70;99.90;;;;;;5024452;28;20021;-83
2022/10/03 11:36:12;;;;;;;;;;;18.60;99.90;;;;;;5007407;28;20268;-83
2022/10/03 11:38:53;;;;;;;;;;;18.40;99.90;;;;;;5023597;28;20368;-83
2022/10/03 11:41:19;;;;;;;;;;;18.40;99.90;;;;;;5024197;28;19925;-83
2022/10/03 11:43:45;;;;;;;;;;;18.30;99.90;;;;;;5023062;28;19928;-83
2022/10/03 11:46:21;;;;;;;;;;;18.40;99.90;;;;;;5024381;28;19921;-83
2022/10/03 11:49:05;;;;;;;;;;;18.30;99.90;;;;;;5023511;28;19921;-83
2022/10/03 11:51:43;;;;;;;;;;;18.30;99.90;;;;;;5006814;28;19979;-83
2022/10/03 11:54:12;;;;;;;;;;;18.20;99.90;;;;;;5024095;28;20024;-83
2022/10/03 11:56:38;;;;;;;;;;;18.20;99.90;;;;;;5023412;28;19921;-83
2022/10/03 11:59:22;;;;;;;;;;;18.10;99.90;;;;;;5024412;28;19974;-84
2022/10/03 12:01:54;;;;;;;;;;;18.10;99.90;;;;;;5023217;28;19928;-85
2022/10/03 12:04:38;;;;;;;;;;;18.10;99.90;;;;;;5024890;28;20035;-83
2022/10/03 12:09:53;;;;;;;;;;;18.10;99.90;;;;;;5023197;28;19925;-82
2022/10/03 12:12:31;;;;;;;;;;;18.20;99.90;;;;;;5007878;28;19948;-83
2022/10/03 12:15:16;;;;;;;;;;;18.30;99.90;;;;;;5023496;28;19975;-84
2022/10/03 12:17:47;;;;;;;;;;;18.40;99.90;;;;;;5023125;28;19920;-84
2022/10/03 12:20:22;;;;;;;;;;;18.40;99.90;;;;;;5024682;28;19921;-84
2022/10/03 12:22:52;;;;;;;;;;;18.40;99.90;;;;;;5022965;28;19921;-85
2022/10/03 12:25:19;;;;;;;;;;;18.40;99.90;;;;;;5024014;28;19928;-84
2022/10/03 12:27:57;;;;;;;;;;;18.30;99.90;;;;;;5008223;28;19925;-84
2022/10/03 12:30:23;;;;;;;;;;;18.30;99.90;;;;;;5026311;28;19921;-84
2022/10/03 12:33:11;;;;;;;;;;;18.30;99.90;;;;;;5011250;28;19967;-84
2022/10/03 12:35:46;;;;;;;;;;;18.40;99.90;;;;;;5027022;28;19928;-84
2022/10/03 12:38:12;;;;;;;;;;;18.40;99.90;;;;;;5027369;28;20434;-84
2022/10/03 12:40:39;;;;;;;;;;;18.40;99.90;;;;;;5010545;28;19921;-84
2022/10/03 12:43:04;;;;;;;;;;;18.40;99.90;;;;;;5010189;28;19921;-84
2022/10/03 12:45:39;;;;;;;;;;;18.50;99.90;;;;;;5027129;28;20353;-84
2022/10/03 12:48:23;;;;;;;;;;;18.60;99.90;;;;;;5026233;28;20365;-84
2022/10/03 12:51:29;;;;;;;;;;;18.70;99.90;;;;;;5027284;28;20412;-84
2022/10/03 12:54:14;;;;;;;;;;;18.60;99.90;;;;;;4950710;28;19929;-84
2022/10/03 12:56:47;;;;;;;;;;;18.60;99.90;;;;;;4949392;28;19929;-84
2022/10/03 12:59:22;;;;;;;;;;;18.60;99.90;;;;;;4999806;28;19921;-84
2022/10/03 13:02:07;;;;;;;;;;;18.60;99.90;;;;;;5026799;28;20363;-84
2022/10/03 13:04:52;;;;;;;;;;;18.50;99.90;;;;;;5009205;28;21907;-84
2022/10/03 13:07:37;;;;;;;;;;;18.40;99.90;;;;;;5027273;28;19921;-84
2022/10/03 13:10:15;;;;;;;;;;;18.30;99.90;;;;;;5025906;28;19921;-84
2022/10/03 13:12:51;;;;;;;;;;;18.30;99.90;;;;;;5010066;28;19963;-84
2022/10/03 13:15:36;;;;;;;;;;;18.40;99.90;;;;;;5010234;28;19965;-84
2022/10/03 13:18:05;;;;;;;;;;;18.40;99.90;;;;;;5009244;28;19921;-84
2022/10/03 13:20:36;;;;;;;;;;;18.40;99.90;;;;;;5011659;28;20245;-85
2022/10/03 13:23:10;;;;;;;;;;;18.60;99.90;;;;;;5028315;28;19967;-84
2022/10/03 13:25:40;;;;;;;;;;;18.60;99.90;;;;;;5029051;28;20359;-84
2022/10/03 13:28:12;;;;;;;;;;;18.70;99.90;;;;;;5012508;28;19921;-84
2022/10/03 13:30:56;;;;;;;;;;;18.60;99.90;;;;;;5028160;28;19921;-84
2022/10/03 13:33:26;;;;;;;;;;;19.40;99.90;;;;;;5030415;28;20016;-82
2022/10/03 13:36:01;;;;;;;;;;;18.50;99.90;;;;;;5019719;28;20122;-85
2022/10/03 13:38:45;;;;;;;;;;;18.40;99.90;;;;;;5025662;28;19966;-86
2022/10/03 13:41:23;;;;;;;;;;;18.30;99.90;;;;;;5026117;28;19940;-85
2022/10/03 13:44:14;;;;;;;;;;;18.20;99.90;;;;;;5041349;28;19993;-85
2022/10/03 13:46:43;;;;;;;;;;;18.20;99.90;;;;;;5023945;28;19996;-86
2022/10/03 13:49:34;;;;;;;;;;;17.60;99.90;;;;;;5044538;28;19924;-95
2022/10/03 13:52:20;;;;;;;;;;;18.30;99.90;;;;;;5041755;28;19917;-95
2022/10/03 13:55:05;;;;;;;;;;;18.40;99.90;;;;;;5052597;28;20004;-96
2022/10/03 13:57:35;;;;;;;;;;;18.40;99.90;;;;;;5051565;28;19916;-95
2022/10/03 14:00:13;;;;;;;;;;;18.40;99.90;;;;;;5051650;28;19917;-96
2022/10/03 14:02:40;;;;;;;;;;;18.40;99.90;;;;;;5051815;28;19976;-96
2022/10/03 14:05:25;;;;;;;;;;;18.30;99.90;;;;;;5031789;28;19927;-96
2022/10/03 14:08:09;;;;;;;;;;;18.20;99.90;;;;;;5051955;28;19921;-94
2022/10/03 14:10:50;;;;;;;;;;;18.30;99.90;;;;;;5050916;28;19924;-95
2022/10/03 14:13:25;;;;;;;;;;;18.20;99.90;;;;;;5049317;28;20319;-96
2022/10/03 14:16:15;;;;;;;;;;;18.20;99.90;;;;;;5029924;28;19921;-96
2022/10/03 14:18:50;;;;;;;;;;;18.10;99.90;;;;;;5040974;28;19927;-96
2022/10/03 14:21:22;;;;;;;;;;;18.00;99.90;;;;;;5040296;28;19960;-96
2022/10/03 14:23:51;;;;;;;;;;;18.00;99.90;;;;;;5039880;28;19932;-95
2022/10/03 14:26:24;;;;;;;;;;;18.00;99.90;;;;;;5043048;28;19925;-96
2022/10/03 14:29:08;;;;;;;;;;;18.90;99.90;;;;;;5024939;28;19924;-96
2022/10/03 14:31:36;;;;;;;;;;;18.00;99.90;;;;;;5018953;28;19921;-95
2022/10/03 14:34:25;;;;;;;;;;;17.90;99.90;;;;;;5019483;28;19921;-96
2022/10/03 14:37:03;;;;;;;;;;;17.90;99.90;;;;;;4963612;28;20394;-96
2022/10/03 14:39:39;;;;;;;;;;;17.90;99.90;;;;;;5031733;28;19925;-95
2022/10/03 14:42:23;;;;;;;;;;;17.90;99.90;;;;;;5025475;28;19917;-96
2022/10/03 14:44:57;;;;;;;;;;;17.80;99.90;;;;;;5029028;28;19925;-96
2022/10/03 14:47:23;;;;;;;;;;;17.80;99.90;;;;;;5013846;28;20012;-96
2022/10/03 14:49:52;;;;;;;;;;;17.80;99.90;;;;;;5018896;28;19960;-96
2022/10/03 14:52:32;;;;;;;;;;;17.80;99.90;;;;;;5027255;28;19943;-95
2022/10/03 14:55:05;;;;;;;;;;;17.80;99.90;;;;;;5010431;28;19987;-96
2022/10/03 14:57:33;;;;;;;;;;;17.80;99.90;;;;;;5026911;28;19998;-94
2022/10/03 14:59:59;;;;;;;;;;;17.80;99.90;;;;;;5009628;28;19921;-94
2022/10/03 15:02:24;;;;;;;;;;;17.70;99.90;;;;;;4994325;28;19921;-94
2022/10/03 15:04:52;;;;;;;;;;;17.70;99.90;;;;;;5011131;28;19921;-94
2022/10/03 15:07:31;;;;;;;;;;;17.70;99.90;;;;;;5014222;28;19944;-93
2022/10/03 15:09:57;;;;;;;;;;;17.70;99.90;;;;;;5014324;28;19921;-93
2022/10/03 15:12:25;;;;;;;;;;;17.70;99.90;;;;;;5014884;28;19967;-93
2022/10/03 15:14:54;;;;;;;;;;;17.70;99.90;;;;;;5018194;28;19992;-94
2022/10/03 15:17:21;;;;;;;;;;;17.80;99.90;;;;;;5017089;28;20351;-92
2022/10/03 15:19:50;;;;;;;;;;;17.80;99.90;;;;;;5015278;28;19928;-92
2022/10/03 15:22:26;;;;;;;;;;;17.70;99.90;;;;;;5013999;28;19921;-91
2022/10/03 15:24:53;;;;;;;;;;;17.70;99.90;;;;;;5011857;28;19921;-94
2022/10/03 15:27:20;;;;;;;;;;;17.70;99.90;;;;;;5015416;28;20398;-92
2022/10/03 15:29:49;;;;;;;;;;;17.60;99.90;;;;;;5011788;28;19971;-93
2022/10/03 15:32:19;;;;;;;;;;;17.60;99.90;;;;;;5013387;28;20270;-96
2022/10/03 15:34:53;;;;;;;;;;;17.50;99.90;;;;;;5014762;28;19921;-96
2022/10/03 15:37:21;;;;;;;;;;;17.50;99.90;;;;;;5017072;28;19975;-95
2022/10/03 15:39:51;;;;;;;;;;;17.40;99.90;;;;;;5021386;28;19917;-95
2022/10/03 15:42:16;;;;;;;;;;;17.30;99.90;;;;;;5019611;28;19931;-96
2022/10/03 15:44:53;;;;;;;;;;;17.20;99.90;;;;;;5016785;28;19972;-93
2022/10/03 15:47:26;;;;;;;;;;;17.20;99.90;;;;;;5011770;28;19921;-88
2022/10/03 15:49:54;;;;;;;;;;;17.00;99.90;;;;;;5010684;28;19936;-91
2022/10/03 15:52:41;;;;;;;;;;;17.00;99.90;;;;;;5008962;28;19925;-91
2022/10/03 15:55:12;;;;;;;;;;;16.90;99.90;;;;;;4997886;28;19928;-92
2022/10/03 15:57:41;;;;;;;;;;;16.10;99.90;;;;;;5010095;28;19921;-93
2022/10/03 16:00:08;;;;;;;;;;;16.70;99.90;;;;;;5009085;28;19927;-92
2022/10/03 16:02:38;;;;;;;;;;;16.70;99.90;;;;;;4993243;28;19921;-92